Time;durP1;ratioP1;P1;durP2;ratioP2;P2;SDS_P1;SDS_P2;PMS_P1;PMS_P2;Temp;Humidity;BMP_temperature;BMP_pressure;BME280_temperature;BME280_humidity;BME280_pressure;Samples;Min_cycle;Max_cycle;Signal;HPM_P1;HPM_P2
2023/06/15 00:01:34;;;;;;;2.65;1.67;;;21.00;43.00;;;;;;5007434;28;20049;-48
2023/06/15 00:04:03;;;;;;;2.35;2.15;;;21.00;43.20;;;;;;5003379;28;20037;-50
2023/06/15 00:06:30;;;;;;;2.33;2.17;;;20.90;43.40;;;;;;5003527;28;20034;-47
2023/06/15 00:09:02;;;;;;;2.28;2.08;;;20.80;43.60;;;;;;4991943;28;20077;-49
2023/06/15 00:11:29;;;;;;;3.30;2.03;;;20.70;43.80;;;;;;5009233;28;20060;-46
2023/06/15 00:13:57;;;;;;;4.20;2.22;;;20.70;43.90;;;;;;5009093;28;20683;-46
2023/06/15 00:16:30;;;;;;;2.17;1.98;;;20.60;44.10;;;;;;5003407;28;20072;-46
2023/06/15 00:18:59;;;;;;;3.78;2.30;;;20.50;44.20;;;;;;5008668;28;21069;-46
2023/06/15 00:21:30;;;;;;;2.60;2.20;;;20.40;44.30;;;;;;5009669;28;20069;-49
2023/06/15 00:23:58;;;;;;;3.58;2.28;;;20.40;44.80;;;;;;5006479;28;20113;-47
2023/06/15 00:26:26;;;;;;;2.03;1.92;;;20.30;44.50;;;;;;5009514;28;20056;-46
2023/06/15 00:28:53;;;;;;;2.40;1.92;;;20.30;44.70;;;;;;5009126;28;20591;-46
2023/06/15 00:31:22;;;;;;;2.35;2.15;;;20.20;44.80;;;;;;4994295;28;20125;-45
2023/06/15 00:33:51;;;;;;;2.58;2.15;;;20.20;44.90;;;;;;4988033;28;20137;-47
2023/06/15 00:36:27;;;;;;;2.35;2.13;;;20.10;44.90;;;;;;5004193;28;20726;-46
2023/06/15 00:38:55;;;;;;;3.33;2.10;;;20.00;44.90;;;;;;4991256;28;20049;-46
2023/06/15 00:41:24;;;;;;;5.78;3.35;;;20.00;45.10;;;;;;4991730;28;20117;-46
2023/06/15 00:43:55;;;;;;;2.35;1.90;;;19.90;45.10;;;;;;4990344;28;20442;-50
2023/06/15 00:46:27;;;;;;;2.70;2.30;;;19.90;45.20;;;;;;4991832;28;20038;-47
2023/06/15 00:48:57;;;;;;;3.28;2.30;;;19.80;45.40;;;;;;5012907;28;20403;-46
2023/06/15 00:51:23;;;;;;;2.72;2.53;;;19.70;46.10;;;;;;4995857;28;20452;-46
2023/06/15 00:53:53;;;;;;;2.42;2.22;;;19.70;46.00;;;;;;4989834;28;20073;-46
2023/06/15 00:56:20;;;;;;;2.78;2.20;;;19.70;46.40;;;;;;4994868;28;20140;-49
2023/06/15 00:58:50;;;;;;;3.67;2.53;;;19.60;46.20;;;;;;4994886;28;20046;-46
2023/06/15 01:01:18;;;;;;;2.35;1.98;;;19.60;46.70;;;;;;4995396;28;20491;-47
2023/06/15 01:03:45;;;;;;;4.75;2.13;;;19.60;46.50;;;;;;5008277;28;20038;-46
2023/06/15 01:06:16;;;;;;;3.38;2.45;;;19.50;46.60;;;;;;4993879;28;20045;-46
2023/06/15 01:08:57;;;;;;;1.92;1.83;;;19.50;46.80;;;;;;4995077;28;20050;-45
2023/06/15 01:11:30;;;;;;;2.40;1.98;;;19.40;46.40;;;;;;4994908;28;20136;-47
2023/06/15 01:13:57;;;;;;;2.92;2.20;;;19.40;47.10;;;;;;4993350;28;20137;-47
2023/06/15 01:16:37;;;;;;;3.33;2.10;;;19.40;46.50;;;;;;5008684;28;20045;-45
2023/06/15 01:19:09;;;;;;;3.50;2.63;;;19.30;47.80;;;;;;5012039;28;20030;-47
2023/06/15 01:21:39;;;;;;;2.58;2.17;;;19.20;46.70;;;;;;4994588;28;20038;-46
2023/06/15 01:24:20;;;;;;;2.78;2.58;;;19.20;46.60;;;;;;5001242;28;20132;-45
2023/06/15 01:26:49;;;;;;;5.20;2.60;;;19.10;47.40;;;;;;5009214;28;20038;-46
2023/06/15 01:29:21;;;;;;;3.25;2.38;;;19.10;47.00;;;;;;5012736;28;20084;-46
2023/06/15 01:31:52;;;;;;;2.38;2.13;;;19.00;47.10;;;;;;5015357;28;20048;-45
2023/06/15 01:34:30;;;;;;;;;;;;;;;;;;;;;
2023/06/15 01:37:00;;;;;;;2.03;1.90;;;18.90;47.00;;;;;;5008343;28;20137;-45
2023/06/15 01:39:46;;;;;;;3.40;2.80;;;18.90;47.30;;;;;;4994160;28;20045;-44
2023/06/15 01:42:14;;;;;;;4.15;2.42;;;18.80;47.50;;;;;;4989721;28;20246;-44
2023/06/15 01:44:44;;;;;;;2.13;2.00;;;18.80;47.30;;;;;;4984902;28;20043;-46
2023/06/15 01:47:16;;;;;;;2.60;2.40;;;18.80;47.40;;;;;;4994279;28;20129;-45
2023/06/15 01:49:46;;;;;;;3.95;2.40;;;18.70;47.80;;;;;;5012141;28;20141;-45
2023/06/15 01:52:14;;;;;;;3.60;2.25;;;18.70;47.60;;;;;;5001734;28;20046;-47
2023/06/15 01:54:50;;;;;;;2.40;2.20;;;18.60;47.80;;;;;;5000824;28;20038;-45
2023/06/15 01:57:20;;;;;;;2.35;2.00;;;18.60;48.00;;;;;;5010661;28;20069;-45
2023/06/15 01:59:47;;;;;;;2.53;2.42;;;18.60;48.30;;;;;;4992847;28;20045;-45
2023/06/15 02:02:13;;;;;;;2.75;2.22;;;18.50;47.90;;;;;;4990444;28;20132;-46
2023/06/15 02:04:42;;;;;;;2.63;2.35;;;18.50;48.00;;;;;;4991001;28;20050;-46
2023/06/15 02:07:08;;;;;;;2.97;2.03;;;18.40;48.20;;;;;;4991837;28;20116;-48
2023/06/15 02:09:37;;;;;;;3.22;2.47;;;18.40;48.10;;;;;;4991525;28;20495;-46
2023/06/15 02:12:05;;;;;;;2.55;2.30;;;18.40;48.30;;;;;;4990026;28;20084;-48
2023/06/15 02:14:31;;;;;;;4.25;2.25;;;18.30;48.20;;;;;;4994467;28;20046;-46
2023/06/15 02:17:00;;;;;;;4.95;2.30;;;18.30;48.40;;;;;;4993272;28;20634;-45
2023/06/15 02:19:28;;;;;;;2.22;2.10;;;18.30;48.60;;;;;;4990393;28;20073;-47
2023/06/15 02:21:57;;;;;;;6.07;3.38;;;18.20;48.70;;;;;;5010703;28;20045;-48
2023/06/15 02:24:26;;;;;;;3.15;2.83;;;18.20;48.70;;;;;;5006883;28;20065;-45
2023/06/15 02:26:55;;;;;;;2.65;2.38;;;18.20;48.50;;;;;;4994321;28;20111;-47
2023/06/15 02:29:21;;;;;;;2.13;1.98;;;18.10;48.60;;;;;;5011165;28;20061;-46
2023/06/15 02:31:58;;;;;;;3.63;2.72;;;18.10;48.50;;;;;;4997335;28;20069;-45
2023/06/15 02:34:24;;;;;;;2.35;1.83;;;18.10;48.90;;;;;;4989042;28;20518;-47
2023/06/15 02:36:56;;;;;;;3.40;2.50;;;18.00;48.70;;;;;;5010879;28;20520;-45
2023/06/15 02:39:34;;;;;;;3.15;2.70;;;18.00;48.90;;;;;;4993221;28;20038;-44
2023/06/15 02:42:01;;;;;;;2.45;2.25;;;17.90;48.80;;;;;;4990977;28;20121;-49
2023/06/15 02:44:29;;;;;;;2.15;2.05;;;17.90;48.70;;;;;;4991973;28;20084;-46
2023/06/15 02:46:58;;;;;;;2.28;2.15;;;17.80;48.70;;;;;;4993456;28;20422;-49
2023/06/15 02:49:26;;;;;;;2.33;2.13;;;17.80;48.70;;;;;;4993175;28;20042;-46
2023/06/15 02:51:57;;;;;;;2.58;2.38;;;17.80;48.70;;;;;;4987714;28;20176;-45
2023/06/15 02:54:29;;;;;;;3.03;2.50;;;17.70;49.10;;;;;;4986806;28;20137;-44
2023/06/15 02:56:57;;;;;;;2.83;2.30;;;17.70;49.40;;;;;;4993445;28;20454;-46
2023/06/15 02:59:27;;;;;;;3.45;2.65;;;17.60;48.90;;;;;;4993413;28;20042;-45
2023/06/15 03:02:04;;;;;;;2.78;2.47;;;17.60;49.00;;;;;;4990353;28;20068;-47
2023/06/15 03:04:44;;;;;;;2.38;2.17;;;17.60;49.10;;;;;;4991848;28;20042;-46
2023/06/15 03:07:20;;;;;;;1.98;1.88;;;17.50;49.10;;;;;;4991240;28;20046;-45
2023/06/15 03:10:04;;;;;;;2.60;2.40;;;17.50;48.90;;;;;;4992256;28;20462;-44
2023/06/15 03:12:37;;;;;;;2.20;2.10;;;17.50;48.90;;;;;;4992347;28;20097;-46
2023/06/15 03:15:08;;;;;;;2.72;2.53;;;17.40;49.30;;;;;;4989794;28;20093;-46
2023/06/15 03:17:39;;;;;;;2.50;2.30;;;17.30;49.00;;;;;;4993884;28;20053;-44
2023/06/15 03:20:10;;;;;;;2.95;2.70;;;17.30;49.00;;;;;;4993276;28;20446;-45
2023/06/15 03:22:42;;;;;;;2.53;2.30;;;17.30;49.30;;;;;;4993656;28;20526;-46
2023/06/15 03:25:11;;;;;;;2.97;2.78;;;17.30;49.40;;;;;;4986708;28;20054;-45
2023/06/15 03:27:40;;;;;;;2.58;2.38;;;17.20;49.50;;;;;;5006130;28;20038;-45
2023/06/15 03:30:13;;;;;;;2.65;2.45;;;17.20;49.60;;;;;;4992053;28;20108;-46
2023/06/15 03:32:47;;;;;;;3.13;2.90;;;17.20;49.60;;;;;;5004146;28;20035;-46
2023/06/15 03:35:22;;;;;;;;;;;17.10;49.90;;;;;;4986034;28;20041;-45
2023/06/15 03:37:49;;;;;;;3.13;2.53;;;17.20;49.20;;;;;;4974664;28;19930;-47
2023/06/15 03:40:16;;;;;;;2.90;2.70;;;17.10;49.20;;;;;;5000809;28;20049;-49
2023/06/15 03:42:43;;;;;;;2.70;2.50;;;17.10;49.60;;;;;;4992320;28;20038;-47
2023/06/15 03:45:10;;;;;;;2.88;2.40;;;17.10;49.80;;;;;;4992377;28;20054;-45
2023/06/15 03:47:38;;;;;;;2.70;2.50;;;17.00;49.80;;;;;;4993962;28;20054;-44
2023/06/15 03:50:07;;;;;;;2.83;2.63;;;17.00;50.10;;;;;;4988062;28;20060;-46
2023/06/15 03:52:37;;;;;;;2.80;2.60;;;17.00;50.10;;;;;;4987381;28;20042;-45
2023/06/15 03:55:05;;;;;;;2.60;2.40;;;16.90;50.30;;;;;;4986362;28;20050;-46
2023/06/15 03:57:35;;;;;;;4.40;2.70;;;16.90;50.40;;;;;;5010883;28;20037;-45
2023/06/15 04:00:08;;;;;;;2.70;2.50;;;17.00;50.70;;;;;;4992017;28;20510;-47
2023/06/15 04:02:46;;;;;;;3.20;2.90;;;16.90;50.70;;;;;;5005746;28;20138;-49
2023/06/15 04:05:13;;;;;;;2.67;2.47;;;16.90;50.90;;;;;;5005976;28;20040;-48
2023/06/15 04:07:43;;;;;;;3.60;2.88;;;17.00;51.10;;;;;;4989447;28;20038;-46
2023/06/15 04:10:10;;;;;;;2.90;2.70;;;16.90;51.20;;;;;;4990927;28;20078;-44
2023/06/15 04:12:39;;;;;;;2.70;2.50;;;17.00;51.40;;;;;;4992895;28;20042;-49
2023/06/15 04:15:11;;;;;;;3.20;2.83;;;17.00;51.60;;;;;;4988061;28;20574;-45
2023/06/15 04:17:48;;;;;;;3.47;2.85;;;17.00;52.20;;;;;;4993313;28;20049;-45
2023/06/15 04:20:15;;;;;;;2.83;2.60;;;17.00;52.10;;;;;;4991765;28;20531;-45
2023/06/15 04:22:48;;;;;;;3.58;3.28;;;17.00;52.30;;;;;;4987051;28;20038;-46
2023/06/15 04:25:15;;;;;;;3.20;2.90;;;17.00;52.30;;;;;;4986272;28;20065;-45
2023/06/15 04:27:44;;;;;;;3.33;3.00;;;17.10;52.60;;;;;;4992737;28;20038;-46
2023/06/15 04:30:16;;;;;;;6.20;2.83;;;17.10;52.80;;;;;;4975920;28;20153;-46
2023/06/15 04:32:57;;;;;;;3.10;2.80;;;17.20;53.00;;;;;;4986082;28;20049;-45
2023/06/15 04:35:31;;;;;;;3.35;3.05;;;17.20;53.40;;;;;;4989406;28;20514;-45
2023/06/15 04:38:07;;;;;;;2.88;2.67;;;17.30;53.20;;;;;;4992648;28;20050;-44
2023/06/15 04:40:34;;;;;;;3.30;3.00;;;17.30;53.40;;;;;;4990742;28;20076;-47
2023/06/15 04:43:05;;;;;;;4.85;3.58;;;17.30;53.60;;;;;;4989334;28;20515;-45
2023/06/15 04:45:34;;;;;;;3.13;2.83;;;17.40;53.80;;;;;;4992241;28;20458;-45
2023/06/15 04:48:02;;;;;;;3.40;3.10;;;17.40;54.50;;;;;;4992263;28;20046;-45
2023/06/15 04:50:34;;;;;;;3.85;3.55;;;17.50;54.10;;;;;;4971441;28;20139;-46
2023/06/15 04:53:09;;;;;;;3.90;3.50;;;17.60;54.30;;;;;;4989328;28;20050;-45
2023/06/15 04:55:36;;;;;;;4.03;3.70;;;17.60;54.70;;;;;;4986755;28;20574;-45
2023/06/15 04:58:04;;;;;;;4.00;3.70;;;17.70;54.70;;;;;;4992070;28;20454;-47
2023/06/15 05:00:31;;;;;;;3.95;3.38;;;17.70;54.90;;;;;;4991756;28;20711;-45
2023/06/15 05:03:01;;;;;;;4.55;4.07;;;17.80;55.10;;;;;;4990071;28;20046;-47
2023/06/15 05:05:28;;;;;;;3.47;3.17;;;17.80;55.20;;;;;;4985729;28;20046;-46
2023/06/15 05:07:55;;;;;;;4.03;3.47;;;17.90;55.40;;;;;;5015303;23;20058;-48
2023/06/15 05:10:22;;;;;;;4.38;3.85;;;18.00;55.50;;;;;;5012485;28;20136;-44
2023/06/15 05:13:07;;;;;;;6.63;5.50;;;18.00;55.60;;;;;;5006550;28;20050;-49
2023/06/15 05:15:35;;;;;;;5.90;4.32;;;18.10;55.80;;;;;;5007036;28;20054;-49
2023/06/15 05:18:02;;;;;;;5.25;4.28;;;18.20;55.90;;;;;;5000824;28;20133;-48
2023/06/15 05:20:30;;;;;;;5.15;4.15;;;18.30;56.10;;;;;;5003802;28;20105;-49
2023/06/15 05:22:57;;;;;;;4.68;4.25;;;18.30;56.20;;;;;;4989948;28;20053;-47
2023/06/15 05:25:24;;;;;;;5.00;4.60;;;18.40;56.40;;;;;;4966187;28;20044;-49
2023/06/15 05:27:51;;;;;;;4.82;4.43;;;18.50;56.40;;;;;;4999596;28;20051;-48
2023/06/15 05:30:18;;;;;;;7.53;5.80;;;18.50;56.50;;;;;;5002053;28;20042;-48
2023/06/15 05:32:45;;;;;;;7.85;4.28;;;18.60;56.60;;;;;;4966559;28;20523;-48
2023/06/15 05:35:13;;;;;;;4.82;4.22;;;18.70;56.70;;;;;;4986442;28;20057;-48
2023/06/15 05:37:40;;;;;;;7.03;4.95;;;18.80;56.80;;;;;;4985591;28;20050;-48
2023/06/15 05:40:07;;;;;;;5.40;4.90;;;18.80;56.90;;;;;;5005800;28;21472;-48
2023/06/15 05:42:34;;;;;;;5.10;4.60;;;18.90;57.00;;;;;;4983639;28;20760;-46
2023/06/15 05:45:02;;;;;;;4.80;4.38;;;19.00;56.70;;;;;;4991195;28;20038;-47
2023/06/15 05:47:29;;;;;;;6.72;4.85;;;19.10;56.60;;;;;;4988225;28;20038;-49
2023/06/15 05:49:56;;;;;;;5.70;5.15;;;19.20;56.70;;;;;;4986065;28;20142;-49
2023/06/15 05:52:24;;;;;;;6.78;5.25;;;19.20;56.70;;;;;;5007894;28;20134;-46
2023/06/15 05:54:53;;;;;;;10.50;5.82;;;19.30;56.60;;;;;;4992238;28;20061;-48
2023/06/15 05:57:23;;;;;;;9.45;5.78;;;19.40;56.60;;;;;;4988317;28;20039;-45
2023/06/15 05:59:52;;;;;;;6.00;4.90;;;19.50;56.50;;;;;;4991401;28;20158;-48
2023/06/15 06:02:19;;;;;;;6.63;5.78;;;19.60;56.50;;;;;;4985794;28;20046;-44
2023/06/15 06:04:46;;;;;;;5.82;4.82;;;19.70;56.30;;;;;;4990771;28;20049;-48
2023/06/15 06:07:16;;;;;;;7.90;5.45;;;19.80;56.50;;;;;;5006149;28;20130;-46
2023/06/15 06:09:44;;;;;;;6.80;5.65;;;19.80;55.90;;;;;;4990887;28;20080;-48
2023/06/15 06:12:13;;;;;;;6.32;5.65;;;19.90;55.50;;;;;;4986996;28;20137;-46
2023/06/15 06:14:40;;;;;;;9.93;6.47;;;20.00;55.30;;;;;;5006685;28;20069;-45
2023/06/15 06:17:07;;;;;;;7.38;5.20;;;20.10;55.70;;;;;;5006555;28;20435;-49
2023/06/15 06:19:38;;;;;;;6.55;5.63;;;20.20;55.20;;;;;;4991516;28;20042;-45
2023/06/15 06:22:05;;;;;;;9.23;6.07;;;20.30;55.50;;;;;;4981202;28;20136;-45
2023/06/15 06:24:32;;;;;;;6.05;5.40;;;20.30;55.20;;;;;;5004216;28;20069;-47
2023/06/15 06:27:01;;;;;;;6.68;5.05;;;20.40;54.80;;;;;;5006117;28;20050;-49
2023/06/15 06:29:28;;;;;;;5.40;4.90;;;20.50;54.40;;;;;;4992458;28;20125;-47
2023/06/15 06:31:55;;;;;;;10.45;4.95;;;20.60;54.00;;;;;;4988492;28;20171;-46
2023/06/15 06:34:22;;;;;;;5.43;4.00;;;20.70;53.50;;;;;;5004098;28;20048;-47
2023/06/15 06:36:48;;;;;;;4.53;3.97;;;20.80;53.10;;;;;;4990964;28;20043;-47
2023/06/15 06:39:16;;;;;;;6.82;4.13;;;20.80;52.50;;;;;;4990026;28;20042;-45
2023/06/15 06:41:43;;;;;;;5.53;3.92;;;20.90;52.40;;;;;;4988851;28;20070;-46
2023/06/15 06:44:12;;;;;;;6.85;3.97;;;21.00;52.40;;;;;;4988360;28;20047;-46
2023/06/15 06:46:38;;;;;;;5.03;3.40;;;21.10;51.90;;;;;;4990721;28;20069;-50
2023/06/15 06:49:07;;;;;;;4.82;3.45;;;21.10;51.70;;;;;;4991778;28;20129;-50
2023/06/15 06:51:36;;;;;;;5.38;3.40;;;21.20;51.30;;;;;;4988705;28;20104;-48
2023/06/15 06:54:03;;;;;;;5.10;3.90;;;21.30;51.40;;;;;;4985311;28;20401;-48
2023/06/15 06:56:30;;;;;;;4.13;3.25;;;21.30;50.90;;;;;;4991419;28;20064;-48
2023/06/15 06:58:57;;;;;;;7.22;3.40;;;21.40;50.70;;;;;;4983023;28;20043;-50
2023/06/15 07:01:24;;;;;;;3.80;3.42;;;21.50;50.80;;;;;;4985838;28;20435;-49
2023/06/15 07:03:51;;;;;;;3.65;3.13;;;21.60;50.90;;;;;;4983333;28;20066;-49
2023/06/15 07:06:19;;;;;;;4.90;2.92;;;21.60;50.70;;;;;;4983800;28;20081;-49
2023/06/15 07:08:47;;;;;;;5.00;3.40;;;21.70;50.30;;;;;;4980927;28;20049;-50
2023/06/15 07:11:14;;;;;;;3.35;2.88;;;21.80;50.20;;;;;;4983906;28;20039;-50
2023/06/15 07:13:41;;;;;;;3.10;2.88;;;21.90;50.10;;;;;;4985208;28;20115;-49
2023/06/15 07:16:07;;;;;;;5.80;3.20;;;21.90;50.20;;;;;;4982842;28;20070;-50
2023/06/15 07:18:34;;;;;;;3.95;3.15;;;22.00;49.20;;;;;;4984730;28;20121;-50
2023/06/15 07:21:01;;;;;;;3.60;2.92;;;22.00;49.30;;;;;;4983490;28;20047;-50
2023/06/15 07:23:28;;;;;;;3.78;2.70;;;22.10;48.90;;;;;;4984397;28;20034;-49
2023/06/15 07:26:10;;;;;;;4.20;2.75;;;22.20;48.40;;;;;;4985492;28;20054;-47
2023/06/15 07:28:37;;;;;;;4.50;3.28;;;22.30;48.40;;;;;;4985402;28;20145;-50
2023/06/15 07:31:03;;;;;;;2.83;2.63;;;22.40;48.10;;;;;;4984938;28;20059;-48
2023/06/15 07:33:30;;;;;;;3.85;3.08;;;22.40;47.80;;;;;;4986200;28;20105;-49
2023/06/15 07:35:59;;;;;;;5.05;2.70;;;22.50;47.30;;;;;;4986905;28;20052;-50
2023/06/15 07:38:25;;;;;;;4.32;3.70;;;22.60;47.40;;;;;;4983451;28;20436;-48
2023/06/15 07:40:52;;;;;;;5.13;3.25;;;22.60;47.10;;;;;;4983242;28;20077;-49
2023/06/15 07:43:21;;;;;;;3.67;2.72;;;22.70;46.60;;;;;;4983405;28;20080;-50
2023/06/15 07:45:48;;;;;;;3.65;2.90;;;22.70;46.70;;;;;;4987508;28;20034;-48
2023/06/15 07:48:14;;;;;;;3.42;3.17;;;22.80;46.50;;;;;;4985870;28;20137;-49
2023/06/15 07:50:41;;;;;;;2.88;2.65;;;22.80;46.30;;;;;;4984443;28;20100;-48
2023/06/15 07:53:07;;;;;;;8.65;2.97;;;22.90;45.60;;;;;;4980493;28;20081;-48
2023/06/15 07:55:36;;;;;;;4.63;3.00;;;23.00;45.70;;;;;;4982120;28;20314;-47
2023/06/15 07:58:03;;;;;;;3.63;2.70;;;23.00;45.70;;;;;;4989596;28;20069;-48
2023/06/15 08:00:30;;;;;;;4.15;2.70;;;23.10;45.50;;;;;;4980939;28;20575;-50
2023/06/15 08:02:59;;;;;;;4.15;2.72;;;23.20;45.70;;;;;;4984989;28;20531;-48
2023/06/15 08:05:26;;;;;;;3.60;2.80;;;23.30;45.60;;;;;;4981912;28;20030;-46
2023/06/15 08:07:53;;;;;;;3.42;2.58;;;23.30;45.20;;;;;;4983981;28;20121;-49
2023/06/15 08:10:20;;;;;;;3.42;2.90;;;23.40;45.60;;;;;;4991190;28;20066;-50
2023/06/15 08:12:46;;;;;;;4.28;2.70;;;23.40;44.30;;;;;;4989695;28;20057;-49
2023/06/15 08:15:13;;;;;;;3.53;2.95;;;23.50;44.70;;;;;;4984355;28;20042;-47
2023/06/15 08:17:40;;;;;;;5.20;3.28;;;23.60;44.30;;;;;;4987516;28;20117;-46
2023/06/15 08:20:09;;;;;;;3.05;2.75;;;23.60;44.00;;;;;;4989965;28;20065;-49
2023/06/15 08:22:36;;;;;;;6.25;2.72;;;23.70;43.80;;;;;;4982185;28;20145;-49
2023/06/15 08:25:03;;;;;;;3.35;2.58;;;23.70;44.10;;;;;;4982221;28;20070;-49
2023/06/15 08:27:30;;;;;;;7.18;2.33;;;23.80;44.20;;;;;;4981009;28;20112;-50
2023/06/15 08:30:00;;;;;;;3.33;3.00;;;23.90;43.60;;;;;;4990281;28;20062;-50
2023/06/15 08:32:26;;;;;;;2.97;2.58;;;23.90;43.50;;;;;;4985726;28;20082;-49
2023/06/15 08:34:53;;;;;;;2.83;2.50;;;24.00;43.20;;;;;;4989694;28;20051;-50
2023/06/15 08:37:20;;;;;;;5.07;2.60;;;24.00;42.90;;;;;;4988967;28;20455;-50
2023/06/15 08:39:47;;;;;;;3.10;2.60;;;24.10;42.80;;;;;;4986076;28;20034;-50
2023/06/15 08:42:17;;;;;;;3.42;3.10;;;24.20;42.50;;;;;;4981215;28;20089;-49
2023/06/15 08:44:47;;;;;;;3.42;2.72;;;24.20;42.00;;;;;;4984903;28;20080;-50
2023/06/15 08:47:14;;;;;;;3.88;2.72;;;24.30;42.30;;;;;;4982042;28;20046;-50
2023/06/15 08:49:43;;;;;;;3.83;2.60;;;24.30;42.20;;;;;;4989245;28;20580;-50
2023/06/15 08:52:12;;;;;;;4.18;3.10;;;24.40;42.20;;;;;;4989208;28;20038;-50
2023/06/15 08:54:42;;;;;;;3.40;3.10;;;24.40;41.70;;;;;;4981859;28;20557;-47
2023/06/15 08:57:09;;;;;;;5.60;3.05;;;24.50;41.50;;;;;;4989129;28;20050;-49
2023/06/15 08:59:36;;;;;;;6.15;3.47;;;24.50;41.40;;;;;;4989142;28;20073;-50
2023/06/15 09:02:06;;;;;;;4.15;3.08;;;24.60;41.50;;;;;;4984969;28;20605;-47
2023/06/15 09:04:32;;;;;;;3.50;3.10;;;24.70;41.20;;;;;;4988190;28;20045;-50
2023/06/15 09:07:00;;;;;;;3.50;2.78;;;24.70;40.90;;;;;;4980514;28;20043;-49
2023/06/15 09:09:26;;;;;;;3.45;2.90;;;24.80;40.40;;;;;;4989543;28;20180;-47
2023/06/15 09:11:53;;;;;;;7.03;2.92;;;24.90;40.40;;;;;;4993484;28;20078;-50
2023/06/15 09:14:20;;;;;;;4.78;2.65;;;24.90;40.20;;;;;;4993014;28;20604;-48
2023/06/15 09:16:50;;;;;;;5.97;2.85;;;24.90;40.50;;;;;;4988874;28;20038;-48
2023/06/15 09:19:19;;;;;;;3.75;3.08;;;25.00;39.20;;;;;;4993827;28;20042;-50
2023/06/15 09:21:51;;;;;;;5.07;3.00;;;25.10;38.90;;;;;;4993736;28;20499;-49
2023/06/15 09:24:21;;;;;;;3.17;2.65;;;25.10;39.00;;;;;;4983939;28;20762;-49
2023/06/15 09:26:48;;;;;;;3.28;2.78;;;25.20;38.60;;;;;;4992727;28;20426;-49
2023/06/15 09:29:15;;;;;;;4.57;3.17;;;25.20;38.80;;;;;;4993615;28;20125;-48
2023/06/15 09:31:41;;;;;;;2.97;2.50;;;25.30;38.80;;;;;;4993475;28;20117;-46
2023/06/15 09:34:13;;;;;;;4.47;2.70;;;25.30;38.40;;;;;;4984368;28;20422;-50
2023/06/15 09:36:48;;;;;;;3.03;2.80;;;25.40;38.30;;;;;;4984584;28;20088;-45
2023/06/15 09:39:23;;;;;;;2.72;2.53;;;25.60;38.30;;;;;;4993251;28;20054;-50
2023/06/15 09:41:51;;;;;;;5.50;3.13;;;25.60;38.30;;;;;;4992920;28;20046;-50
2023/06/15 09:44:20;;;;;;;3.10;2.90;;;25.80;38.50;;;;;;4982212;28;20043;-49
2023/06/15 09:46:49;;;;;;;4.97;3.38;;;25.80;37.80;;;;;;4988506;28;20093;-49
2023/06/15 09:49:26;;;;;;;5.15;3.13;;;25.80;37.80;;;;;;4992319;28;20042;-49
2023/06/15 09:51:54;;;;;;;4.35;3.03;;;26.00;37.80;;;;;;4990765;28;20068;-50
2023/06/15 09:54:23;;;;;;;3.58;3.28;;;26.00;38.00;;;;;;4985283;28;20042;-50
2023/06/15 09:56:52;;;;;;;3.13;2.83;;;26.10;37.70;;;;;;4992376;28;20046;-50
2023/06/15 09:59:20;;;;;;;3.75;2.55;;;26.10;37.00;;;;;;4992957;28;20050;-49
2023/06/15 10:01:49;;;;;;;4.18;3.10;;;26.20;37.00;;;;;;4989531;28;20030;-48
2023/06/15 10:04:23;;;;;;;3.47;3.00;;;26.30;36.70;;;;;;4989564;28;20038;-49
2023/06/15 10:06:55;;;;;;;3.35;3.05;;;26.40;36.20;;;;;;4985012;28;20034;-51
2023/06/15 10:09:28;;;;;;;3.85;2.97;;;26.50;35.70;;;;;;4988930;28;20402;-50
2023/06/15 10:12:09;;;;;;;3.33;3.13;;;26.70;35.80;;;;;;4992194;28;20767;-49
2023/06/15 10:14:45;;;;;;;2.95;2.65;;;26.80;34.90;;;;;;4987059;28;20121;-50
2023/06/15 10:17:14;;;;;;;3.90;2.85;;;26.90;34.80;;;;;;4991540;28;20070;-47
2023/06/15 10:19:43;;;;;;;3.50;2.72;;;27.00;35.50;;;;;;4992131;28;20121;-50
2023/06/15 10:22:23;;;;;;;3.60;3.30;;;27.10;35.60;;;;;;4992119;28;20050;-50
2023/06/15 10:24:51;;;;;;;3.40;3.10;;;27.20;34.80;;;;;;4987713;28;20046;-50
2023/06/15 10:27:18;;;;;;;3.42;3.13;;;27.30;34.60;;;;;;4992850;28;20050;-49
2023/06/15 10:30:01;;;;;;;3.75;3.40;;;27.30;33.80;;;;;;4989292;28;20581;-51
2023/06/15 10:32:35;;;;;;;3.38;2.90;;;27.40;33.60;;;;;;4983839;28;20046;-47
2023/06/15 10:35:14;;;;;;;4.50;3.05;;;27.40;34.00;;;;;;4986018;28;20050;-50
2023/06/15 10:37:48;;;;;;;4.97;3.38;;;27.40;34.10;;;;;;4983333;28;20129;-50
2023/06/15 10:40:24;;;;;;;6.30;3.25;;;27.40;34.00;;;;;;4993091;28;20074;-51
2023/06/15 10:42:56;;;;;;;3.42;2.90;;;27.50;33.90;;;;;;4987668;28;20040;-47
2023/06/15 10:45:33;;;;;;;4.05;3.30;;;27.50;34.30;;;;;;4986091;28;20460;-49
2023/06/15 10:48:01;;;;;;;3.70;3.28;;;27.50;34.00;;;;;;4985628;28;20121;-48
2023/06/15 10:50:38;;;;;;;4.63;3.55;;;27.50;33.80;;;;;;5004593;28;20051;-46
2023/06/15 10:53:04;;;;;;;4.22;3.55;;;27.60;33.80;;;;;;4982878;28;20039;-50
2023/06/15 10:55:31;;;;;;;3.53;3.08;;;27.60;33.70;;;;;;4986975;28;20586;-47
2023/06/15 10:58:17;;;;;;;4.10;3.00;;;27.60;33.70;;;;;;4990627;28;20073;-46
2023/06/15 11:00:49;;;;;;;5.57;3.80;;;27.60;33.60;;;;;;4991839;28;20120;-47
2023/06/15 11:03:25;;;;;;;3.20;2.90;;;27.60;34.20;;;;;;4985388;28;20078;-51
2023/06/15 11:06:05;;;;;;;4.40;3.38;;;27.60;34.20;;;;;;4990715;28;20234;-49
2023/06/15 11:08:50;;;;;;;3.88;3.55;;;27.70;34.00;;;;;;4989032;28;20089;-47
2023/06/15 11:11:31;;;;;;;6.90;4.40;;;27.80;33.90;;;;;;5007353;23;20973;-42
2023/06/15 11:14:06;;;;;;;4.47;3.20;;;27.90;33.80;;;;;;5004870;28;20072;-44
2023/06/15 11:16:34;;;;;;;7.35;3.58;;;27.90;33.50;;;;;;5003837;28;20113;-44
2023/06/15 11:19:10;;;;;;;4.43;3.15;;;28.00;33.50;;;;;;5001658;28;20399;-45
2023/06/15 11:21:40;;;;;;;4.10;3.40;;;28.10;33.20;;;;;;5007223;28;20128;-45
2023/06/15 11:24:07;;;;;;;4.03;3.72;;;28.20;33.40;;;;;;5005127;28;20044;-45
2023/06/15 11:26:52;;;;;;;6.10;4.28;;;28.20;33.10;;;;;;5005121;28;20109;-46
2023/06/15 11:29:26;;;;;;;4.15;3.70;;;28.30;32.60;;;;;;5008487;28;20086;-45
2023/06/15 11:31:54;;;;;;;3.72;3.42;;;28.40;33.10;;;;;;5009299;28;20447;-44
2023/06/15 11:34:20;;;;;;;5.90;3.95;;;28.40;33.30;;;;;;5009477;28;20077;-46
2023/06/15 11:36:47;;;;;;;4.40;4.00;;;28.50;33.00;;;;;;5009295;28;20052;-44
2023/06/15 11:39:22;;;;;;;5.35;3.58;;;28.60;32.80;;;;;;5009340;28;20161;-45
2023/06/15 11:41:53;;;;;;;4.75;4.15;;;28.80;32.20;;;;;;5008745;28;20046;-46
2023/06/15 11:44:25;;;;;;;4.35;3.40;;;28.90;32.10;;;;;;5009092;28;20046;-45
2023/06/15 11:46:56;;;;;;;5.82;4.32;;;28.90;32.30;;;;;;5003041;28;20476;-44
2023/06/15 11:49:23;;;;;;;5.40;4.10;;;29.10;32.30;;;;;;5009938;28;20038;-45
2023/06/15 11:51:52;;;;;;;5.15;4.05;;;29.20;32.20;;;;;;5009823;28;20054;-47
2023/06/15 11:54:24;;;;;;;5.28;3.80;;;29.30;32.30;;;;;;5007694;28;20574;-45
2023/06/15 11:57:06;;;;;;;5.85;4.03;;;29.40;32.70;;;;;;5002044;28;20069;-44
2023/06/15 11:59:35;;;;;;;4.47;3.95;;;29.60;32.30;;;;;;4999545;28;20129;-45
2023/06/15 12:02:03;;;;;;;4.43;4.03;;;29.70;32.60;;;;;;5000050;28;20123;-46
2023/06/15 12:04:31;;;;;;;6.57;3.83;;;29.90;31.50;;;;;;5006963;28;20656;-47
2023/06/15 12:07:01;;;;;;;4.10;3.70;;;30.00;31.60;;;;;;5006858;28;20046;-45
2023/06/15 12:09:27;;;;;;;6.47;3.72;;;30.10;31.50;;;;;;5002584;28;20038;-45
2023/06/15 12:11:55;;;;;;;4.95;4.55;;;30.20;31.50;;;;;;5003419;28;20045;-45
2023/06/15 12:14:24;;;;;;;4.78;4.10;;;30.30;30.60;;;;;;5006115;28;20121;-46
2023/06/15 12:16:52;;;;;;;5.93;3.88;;;30.30;30.60;;;;;;5009725;28;20076;-46
2023/06/15 12:19:20;;;;;;;5.70;4.68;;;30.30;30.80;;;;;;5009480;28;20077;-45
2023/06/15 12:21:48;;;;;;;5.88;3.80;;;30.20;30.60;;;;;;5004058;28;20038;-46
2023/06/15 12:24:19;;;;;;;5.43;4.15;;;30.10;30.60;;;;;;5008250;28;20030;-45
2023/06/15 12:26:51;;;;;;;;;;;30.00;30.80;;;;;;5001105;28;20069;-46
2023/06/15 12:29:19;;;;;;;6.95;4.38;;;30.00;31.50;;;;;;5002320;28;20386;-45
2023/06/15 12:31:50;;;;;;;5.30;4.57;;;29.90;31.10;;;;;;5002242;28;20077;-47
2023/06/15 12:34:25;;;;;;;5.90;4.13;;;29.80;30.70;;;;;;5001291;28;20109;-49
2023/06/15 12:36:54;;;;;;;7.20;3.80;;;29.80;31.20;;;;;;4999834;28;20042;-46
2023/06/15 12:39:27;;;;;;;4.95;3.75;;;29.80;30.80;;;;;;5002395;28;20038;-48
2023/06/15 12:42:01;;;;;;;4.25;3.67;;;29.80;30.60;;;;;;5004539;28;20100;-47
2023/06/15 12:44:29;;;;;;;6.50;3.72;;;29.90;30.10;;;;;;5005000;28;20125;-47
2023/06/15 12:46:56;;;;;;;4.45;3.50;;;30.00;30.00;;;;;;5013510;28;20445;-47
2023/06/15 12:49:23;;;;;;;4.38;3.70;;;30.00;30.00;;;;;;5009786;28;20041;-46
2023/06/15 12:51:50;;;;;;;3.70;3.20;;;30.10;30.20;;;;;;5009659;28;20037;-45
2023/06/15 12:54:20;;;;;;;4.40;3.40;;;30.20;30.50;;;;;;5007500;28;20042;-47
2023/06/15 12:56:47;;;;;;;6.25;3.83;;;30.40;29.80;;;;;;5003120;28;20097;-46
2023/06/15 12:59:13;;;;;;;8.02;4.22;;;30.50;29.30;;;;;;5008640;28;20069;-45
2023/06/15 13:01:40;;;;;;;4.95;3.83;;;30.60;29.40;;;;;;4995217;28;20577;-45